createdAt,value
2018-10-16T00:02:05.121Z,99.90
2018-10-16T00:04:33.619Z,99.90
2018-10-16T00:07:02.206Z,99.90
2018-10-16T00:09:30.787Z,99.90
2018-10-16T00:12:09.886Z,99.90
2018-10-16T00:14:38.525Z,99.90
2018-10-16T00:17:07.238Z,99.90
2018-10-16T00:19:35.790Z,99.90
2018-10-16T00:22:04.530Z,99.90
2018-10-16T00:24:33.102Z,99.90
2018-10-16T00:27:01.614Z,99.90
2018-10-16T00:29:30.223Z,99.90
2018-10-16T00:31:58.788Z,99.90
2018-10-16T00:34:27.359Z,99.90
2018-10-16T00:36:56.046Z,99.90
2018-10-16T00:39:24.722Z,99.90
2018-10-16T00:41:53.264Z,99.90
2018-10-16T00:44:21.926Z,99.90
2018-10-16T00:46:50.653Z,99.90
2018-10-16T00:49:19.208Z,99.90
2018-10-16T00:51:47.926Z,99.90
2018-10-16T00:54:16.574Z,99.90
2018-10-16T00:56:45.112Z,99.90
2018-10-16T00:59:13.678Z,99.90
2018-10-16T01:01:42.176Z,99.90
2018-10-16T01:04:10.753Z,99.90
2018-10-16T01:06:39.310Z,99.90
2018-10-16T01:09:09.690Z,99.90
2018-10-16T01:11:38.482Z,99.90
2018-10-16T01:14:07.035Z,99.90
2018-10-16T01:16:35.631Z,99.90
2018-10-16T01:19:04.213Z,99.90
2018-10-16T01:21:32.798Z,99.90
2018-10-16T01:24:01.307Z,99.90
2018-10-16T01:26:29.832Z,99.90
2018-10-16T01:28:58.428Z,99.90
2018-10-16T01:31:26.923Z,99.90
2018-10-16T01:33:55.430Z,99.90
2018-10-16T01:36:24.054Z,99.90
2018-10-16T01:38:52.554Z,99.90
2018-10-16T01:41:21.154Z,99.90
2018-10-16T01:43:50.397Z,99.90
2018-10-16T01:46:18.956Z,99.90
2018-10-16T01:48:47.472Z,99.90
2018-10-16T01:51:15.998Z,99.90
2018-10-16T01:53:44.622Z,99.90
2018-10-16T01:56:13.314Z,99.90
2018-10-16T01:58:41.897Z,99.90
2018-10-16T02:01:10.531Z,99.90
2018-10-16T02:03:39.043Z,99.90
2018-10-16T02:06:07.623Z,99.90
2018-10-16T02:08:36.135Z,99.90
2018-10-16T02:11:04.769Z,99.90
2018-10-16T02:13:33.245Z,99.90
2018-10-16T02:16:01.818Z,99.90
2018-10-16T02:18:30.388Z,99.90
2018-10-16T02:20:58.995Z,99.90
2018-10-16T02:23:27.593Z,99.90
2018-10-16T02:25:56.108Z,99.90
2018-10-16T02:28:24.838Z,99.90
2018-10-16T02:30:53.392Z,99.90
2018-10-16T02:33:21.887Z,99.90
2018-10-16T02:35:50.402Z,99.90
2018-10-16T02:38:18.941Z,99.90
2018-10-16T02:40:47.528Z,99.90
2018-10-16T02:43:16.052Z,99.90
2018-10-16T02:45:44.617Z,99.90
2018-10-16T02:48:13.165Z,99.90
2018-10-16T02:50:41.712Z,99.90
2018-10-16T02:53:10.341Z,99.90
2018-10-16T02:55:38.881Z,99.90
2018-10-16T02:58:07.475Z,99.90
2018-10-16T03:00:36.096Z,99.90
2018-10-16T03:03:04.712Z,99.90
2018-10-16T03:05:33.326Z,99.90
2018-10-16T03:08:01.884Z,99.90
2018-10-16T03:10:30.393Z,99.90
2018-10-16T03:12:58.966Z,99.90
2018-10-16T03:15:27.534Z,99.90
2018-10-16T03:17:56.065Z,99.90
2018-10-16T03:20:24.664Z,99.90
2018-10-16T03:22:53.206Z,99.90
2018-10-16T03:25:21.732Z,99.90
2018-10-16T03:27:50.288Z,99.90
2018-10-16T03:30:18.803Z,99.90
2018-10-16T03:32:47.341Z,99.90
2018-10-16T03:35:15.949Z,99.90
2018-10-16T03:37:44.512Z,99.90
2018-10-16T03:40:13.337Z,99.90
2018-10-16T03:42:42.580Z,99.90
2018-10-16T03:45:12.325Z,99.90
2018-10-16T03:47:41.481Z,99.90
2018-10-16T03:50:10.624Z,99.90
2018-10-16T03:52:39.321Z,99.90
2018-10-16T03:55:08.316Z,99.90
2018-10-16T03:57:37.115Z,99.90
2018-10-16T04:00:06.127Z,99.90
2018-10-16T04:02:35.289Z,99.90
2018-10-16T04:05:03.956Z,99.90
2018-10-16T04:07:32.585Z,99.90
2018-10-16T04:10:01.242Z,99.90
2018-10-16T04:12:29.794Z,99.90
2018-10-16T04:14:58.317Z,99.90
2018-10-16T04:17:26.910Z,99.90
2018-10-16T04:19:55.628Z,99.90
2018-10-16T04:22:24.262Z,99.90
2018-10-16T04:24:52.862Z,99.90
2018-10-16T04:27:21.429Z,99.90
2018-10-16T04:29:50.040Z,99.90
2018-10-16T04:32:18.551Z,99.90
2018-10-16T04:34:46.991Z,99.90
2018-10-16T04:37:15.748Z,99.90
2018-10-16T04:39:44.267Z,99.90
2018-10-16T04:42:12.851Z,99.90
2018-10-16T04:44:41.328Z,99.90
2018-10-16T04:47:10.025Z,99.90
2018-10-16T04:49:38.691Z,99.90
2018-10-16T04:52:07.238Z,99.90
2018-10-16T04:54:35.901Z,99.90
2018-10-16T04:57:04.807Z,99.90
2018-10-16T04:59:33.304Z,99.90
2018-10-16T05:02:01.976Z,99.90
2018-10-16T05:04:30.489Z,99.90
2018-10-16T05:06:59.645Z,99.90
2018-10-16T05:09:28.246Z,99.90
2018-10-16T05:11:56.880Z,99.90
2018-10-16T05:14:25.417Z,99.90
2018-10-16T05:16:54.078Z,99.90
2018-10-16T05:19:22.637Z,99.90
2018-10-16T05:21:51.284Z,99.90
2018-10-16T05:24:19.863Z,99.90
2018-10-16T05:26:48.420Z,99.90
2018-10-16T05:29:17.119Z,99.90
2018-10-16T05:31:45.705Z,99.90
2018-10-16T05:34:14.341Z,99.90
2018-10-16T05:36:42.893Z,99.90
2018-10-16T05:39:12.727Z,99.90
2018-10-16T05:41:41.467Z,99.90
2018-10-16T05:44:10.112Z,99.90
2018-10-16T05:46:38.754Z,99.90
2018-10-16T05:49:07.436Z,99.90
2018-10-16T05:51:36.150Z,99.90
2018-10-16T05:54:04.816Z,99.90
2018-10-16T05:56:33.403Z,99.90
2018-10-16T05:59:02.005Z,99.90
2018-10-16T06:01:30.717Z,99.90
2018-10-16T06:03:59.351Z,99.90
2018-10-16T06:06:28.823Z,99.90
2018-10-16T06:08:57.418Z,99.90
2018-10-16T06:11:25.964Z,99.90
2018-10-16T06:13:54.582Z,99.90
2018-10-16T06:16:23.159Z,99.90
2018-10-16T06:18:51.828Z,99.90
2018-10-16T06:21:20.383Z,99.90
2018-10-16T06:23:49.037Z,99.90
2018-10-16T06:26:17.707Z,99.90
2018-10-16T06:28:46.287Z,99.90
2018-10-16T06:31:14.893Z,99.90
2018-10-16T06:33:43.584Z,99.90
2018-10-16T06:36:12.177Z,99.90
2018-10-16T06:38:40.700Z,99.90
2018-10-16T06:41:09.378Z,99.90
2018-10-16T06:43:37.893Z,99.90
2018-10-16T06:46:06.535Z,99.90
2018-10-16T06:48:35.423Z,99.90
2018-10-16T06:51:03.828Z,99.90
2018-10-16T06:53:32.755Z,99.90
2018-10-16T06:56:01.346Z,99.90
2018-10-16T06:58:30.804Z,99.90
2018-10-16T07:00:59.533Z,99.90
2018-10-16T07:03:28.202Z,99.90
2018-10-16T07:05:56.867Z,99.90
2018-10-16T07:08:25.518Z,99.90
2018-10-16T07:10:54.191Z,99.90
2018-10-16T07:13:22.682Z,99.90
2018-10-16T07:15:51.367Z,99.90
2018-10-16T07:18:19.945Z,99.90
2018-10-16T07:20:48.527Z,99.90
2018-10-16T07:23:17.227Z,99.90
2018-10-16T07:25:45.850Z,99.90
2018-10-16T07:28:14.419Z,99.90
2018-10-16T07:30:43.073Z,99.90
2018-10-16T07:33:12.043Z,99.90
2018-10-16T07:35:40.623Z,99.90
2018-10-16T07:38:09.408Z,99.90
2018-10-16T07:40:37.883Z,99.90
2018-10-16T07:43:06.507Z,99.90
2018-10-16T07:45:35.100Z,99.90
2018-10-16T07:48:03.747Z,99.90
2018-10-16T07:50:32.291Z,99.90
2018-10-16T07:53:00.871Z,99.90
2018-10-16T07:55:29.484Z,99.90
2018-10-16T07:57:58.075Z,99.90
2018-10-16T08:00:26.789Z,99.90
2018-10-16T08:02:55.400Z,99.90
2018-10-16T08:05:23.951Z,99.90
2018-10-16T08:07:52.643Z,99.90
2018-10-16T08:10:21.396Z,99.90
2018-10-16T08:12:50.079Z,99.90
2018-10-16T08:15:18.667Z,99.90
2018-10-16T08:17:47.286Z,99.90
2018-10-16T08:20:16.854Z,99.90
2018-10-16T08:22:45.457Z,99.90
2018-10-16T08:25:14.015Z,99.90
2018-10-16T08:27:42.610Z,99.90
2018-10-16T08:30:11.381Z,99.90
2018-10-16T08:32:40.246Z,99.90
2018-10-16T08:35:09.090Z,99.90
2018-10-16T08:39:51.896Z,99.90
2018-10-16T08:42:34.024Z,99.90
2018-10-16T08:45:15.488Z,99.90
2018-10-16T08:47:55.555Z,99.90
2018-10-16T08:50:36.737Z,99.90
2018-10-16T08:53:05.349Z,99.90
2018-10-16T08:55:34.514Z,99.90
2018-10-16T08:58:03.979Z,99.90
2018-10-16T09:00:33.002Z,99.90
2018-10-16T09:03:01.801Z,99.90
2018-10-16T09:05:31.084Z,99.90
2018-10-16T09:07:59.668Z,99.90
2018-10-16T09:10:28.464Z,99.90
2018-10-16T09:12:57.018Z,99.90
2018-10-16T09:15:25.722Z,99.90
2018-10-16T09:17:54.272Z,99.90
2018-10-16T09:20:22.908Z,99.90
2018-10-16T09:22:51.511Z,99.90
2018-10-16T09:25:20.075Z,99.90
2018-10-16T09:27:48.769Z,99.90
2018-10-16T09:30:17.369Z,99.90
2018-10-16T09:32:45.877Z,99.90
2018-10-16T09:35:14.539Z,99.90
2018-10-16T09:37:43.222Z,99.90
2018-10-16T09:40:12.882Z,99.90
2018-10-16T09:42:41.470Z,99.90
2018-10-16T09:45:11.050Z,99.90
2018-10-16T09:47:39.736Z,99.90
2018-10-16T09:50:09.571Z,99.90
2018-10-16T09:52:38.154Z,99.90
2018-10-16T09:55:08.171Z,99.90
2018-10-16T09:57:36.888Z,99.90
2018-10-16T10:00:08.617Z,99.90
2018-10-16T10:02:37.298Z,99.90
2018-10-16T10:05:05.978Z,99.90
2018-10-16T10:07:34.598Z,99.90
2018-10-16T10:10:03.259Z,99.90
2018-10-16T10:12:31.813Z,99.80
2018-10-16T10:15:00.493Z,99.90
2018-10-16T10:17:29.062Z,99.40
2018-10-16T10:19:57.644Z,98.60
2018-10-16T10:22:26.217Z,98.90
2018-10-16T10:24:54.866Z,97.90
2018-10-16T10:27:23.383Z,98.10
2018-10-16T10:29:52.047Z,98.70
2018-10-16T10:32:20.600Z,99.30
2018-10-16T10:34:49.422Z,95.20
2018-10-16T10:37:18.011Z,98.30
2018-10-16T10:39:46.587Z,95.50
2018-10-16T10:42:15.339Z,93.80
2018-10-16T10:44:43.908Z,94.50
2018-10-16T10:47:12.520Z,94.80
2018-10-16T10:49:41.101Z,95.90
2018-10-16T10:52:09.708Z,93.10
2018-10-16T10:54:38.280Z,92.70
2018-10-16T10:57:12.613Z,93.50
2018-10-16T10:59:41.249Z,93.40
2018-10-16T11:02:09.877Z,92.30
2018-10-16T11:04:38.441Z,91.30
2018-10-16T11:07:07.193Z,91.10
2018-10-16T11:09:35.779Z,90.80
2018-10-16T11:12:04.586Z,93.10
2018-10-16T11:14:33.223Z,92.40
2018-10-16T11:17:01.902Z,91.70
2018-10-16T11:19:30.525Z,92.30
2018-10-16T11:21:59.094Z,91.60
2018-10-16T11:24:27.765Z,91.50
2018-10-16T11:26:56.376Z,89.50
2018-10-16T11:29:25.002Z,90.30
2018-10-16T11:31:53.632Z,90.80
2018-10-16T11:34:22.299Z,91.70
2018-10-16T11:36:50.937Z,92.10
2018-10-16T11:39:19.426Z,93.00
2018-10-16T11:41:48.028Z,93.80
2018-10-16T11:44:16.597Z,94.70
2018-10-16T11:46:45.255Z,93.10
2018-10-16T11:49:13.872Z,94.10
2018-10-16T11:51:42.477Z,93.40
2018-10-16T11:54:11.085Z,92.10
2018-10-16T11:56:39.917Z,93.30
2018-10-16T11:59:09.691Z,95.60
2018-10-16T12:01:38.370Z,92.30
2018-10-16T12:04:07.016Z,95.40
2018-10-16T12:06:35.691Z,92.10
2018-10-16T12:09:06.261Z,95.30
2018-10-16T12:11:35.571Z,92.80
2018-10-16T12:14:04.510Z,96.60
2018-10-16T12:16:36.868Z,94.00
2018-10-16T12:19:09.752Z,95.90
2018-10-16T12:21:38.326Z,95.70
2018-10-16T12:24:07.041Z,92.40
2018-10-16T12:26:35.631Z,94.40
2018-10-16T12:29:05.316Z,95.30
2018-10-16T12:31:34.064Z,95.30
2018-10-16T12:34:02.674Z,93.60
2018-10-16T12:36:31.283Z,94.80
2018-10-16T12:39:00.612Z,94.70
2018-10-16T12:41:29.416Z,95.40
2018-10-16T12:43:58.062Z,94.90
2018-10-16T12:46:26.625Z,93.50
2018-10-16T12:48:55.404Z,93.60
2018-10-16T12:51:23.988Z,94.50
2018-10-16T12:53:52.617Z,95.40
2018-10-16T12:56:21.191Z,94.40
2018-10-16T12:58:49.771Z,94.50
2018-10-16T13:01:18.428Z,94.20
2018-10-16T13:03:47.059Z,95.30
2018-10-16T13:06:15.648Z,93.70
2018-10-16T13:08:44.223Z,94.30
2018-10-16T13:11:12.897Z,95.20
2018-10-16T13:13:41.425Z,94.30
2018-10-16T13:16:10.067Z,93.90
2018-10-16T13:18:38.691Z,93.50
2018-10-16T13:21:07.459Z,94.10
2018-10-16T13:23:36.082Z,94.90
2018-10-16T13:26:04.866Z,94.60
2018-10-16T13:28:33.777Z,95.60
2018-10-16T13:31:02.407Z,94.20
2018-10-16T13:33:31.002Z,94.80
2018-10-16T13:35:59.562Z,92.90
2018-10-16T13:38:28.192Z,94.90
2018-10-16T13:40:56.961Z,93.90
2018-10-16T13:43:25.636Z,92.70
2018-10-16T13:45:54.580Z,91.80
2018-10-16T13:48:23.247Z,93.20
2018-10-16T13:50:51.984Z,94.00
2018-10-16T13:53:20.619Z,94.30
2018-10-16T13:55:49.332Z,93.60
2018-10-16T13:58:18.059Z,92.80
2018-10-16T14:00:46.595Z,93.60
2018-10-16T14:03:15.196Z,95.70
2018-10-16T14:05:43.831Z,95.20
2018-10-16T14:08:12.585Z,95.30
2018-10-16T14:10:43.302Z,95.60
2018-10-16T14:13:11.945Z,95.50
2018-10-16T14:15:40.464Z,94.90
2018-10-16T14:18:09.165Z,94.60
2018-10-16T14:20:39.335Z,94.00
2018-10-16T14:23:07.953Z,94.50
2018-10-16T14:25:36.499Z,95.30
2018-10-16T14:28:05.796Z,95.10
2018-10-16T14:30:34.414Z,94.60
2018-10-16T14:33:04.849Z,97.30
2018-10-16T14:35:33.565Z,95.70
2018-10-16T14:38:02.282Z,96.40
2018-10-16T14:40:31.041Z,95.60
2018-10-16T14:42:59.590Z,98.10
2018-10-16T14:45:28.142Z,97.00
2018-10-16T14:47:56.797Z,96.40
2018-10-16T14:50:25.420Z,96.30
2018-10-16T14:52:54.112Z,96.70
2018-10-16T14:55:22.673Z,96.60
2018-10-16T14:57:51.347Z,97.00
2018-10-16T15:00:20.469Z,97.20
2018-10-16T15:02:49.103Z,99.00
2018-10-16T15:05:17.758Z,97.90
2018-10-16T15:07:46.391Z,98.80
2018-10-16T15:10:15.111Z,97.70
2018-10-16T15:12:43.601Z,99.90
2018-10-16T15:15:12.230Z,99.90
2018-10-16T15:17:40.847Z,99.90
2018-10-16T15:20:10.301Z,99.90
2018-10-16T15:22:38.975Z,99.90
2018-10-16T15:25:08.655Z,99.90
2018-10-16T15:27:37.229Z,99.90
2018-10-16T15:30:07.736Z,99.90
2018-10-16T15:32:36.350Z,99.90
2018-10-16T15:35:06.233Z,99.90
2018-10-16T15:37:34.865Z,99.90
2018-10-16T15:40:03.642Z,99.90
2018-10-16T15:42:32.232Z,99.90
2018-10-16T15:45:00.874Z,99.90
2018-10-16T15:47:29.484Z,99.90
2018-10-16T15:49:58.331Z,99.90
2018-10-16T15:52:26.998Z,99.90
2018-10-16T15:54:55.644Z,99.90
2018-10-16T15:57:24.264Z,99.90
2018-10-16T15:59:52.842Z,99.90
2018-10-16T16:02:21.495Z,99.90
2018-10-16T16:04:50.159Z,99.90
2018-10-16T16:07:22.044Z,99.90
2018-10-16T16:09:50.657Z,99.90
2018-10-16T16:12:19.253Z,99.90
2018-10-16T16:14:47.868Z,99.90
2018-10-16T16:17:16.629Z,99.90
2018-10-16T16:19:45.271Z,99.90
2018-10-16T16:22:13.878Z,99.90
2018-10-16T16:24:42.414Z,99.90
2018-10-16T16:27:11.065Z,99.90
2018-10-16T16:29:39.621Z,99.90
2018-10-16T16:32:08.215Z,99.90
2018-10-16T16:34:36.837Z,99.90
2018-10-16T16:37:05.592Z,99.90
2018-10-16T16:39:35.237Z,99.90
2018-10-16T16:42:03.755Z,99.90
2018-10-16T16:44:32.717Z,99.90
2018-10-16T16:47:01.397Z,99.90
2018-10-16T16:49:29.938Z,99.90
2018-10-16T16:51:58.562Z,99.90
2018-10-16T16:54:27.113Z,99.90
2018-10-16T16:56:55.731Z,99.90
2018-10-16T16:59:24.341Z,99.90
2018-10-16T17:01:53.137Z,99.90
2018-10-16T17:04:21.809Z,99.90
2018-10-16T17:06:50.470Z,99.90
2018-10-16T17:09:18.975Z,99.90
2018-10-16T17:11:47.524Z,99.90
2018-10-16T17:14:16.154Z,99.90
2018-10-16T17:16:44.715Z,99.90
2018-10-16T17:19:13.288Z,99.90
2018-10-16T17:21:41.887Z,99.90
2018-10-16T17:24:10.427Z,99.90
2018-10-16T17:26:39.213Z,99.90
2018-10-16T17:29:08.097Z,99.90
2018-10-16T17:31:36.679Z,99.90
2018-10-16T17:34:05.603Z,99.90
2018-10-16T17:36:34.146Z,99.90
2018-10-16T17:39:03.263Z,99.90
2018-10-16T17:41:31.831Z,99.90
2018-10-16T17:44:00.416Z,99.90
2018-10-16T17:46:28.950Z,99.90
2018-10-16T17:48:57.484Z,99.90
2018-10-16T17:51:26.042Z,99.90
2018-10-16T17:53:54.689Z,99.90
2018-10-16T17:56:23.193Z,99.90
2018-10-16T17:58:51.836Z,99.90
2018-10-16T18:01:20.451Z,99.90
2018-10-16T18:03:49.150Z,99.90
2018-10-16T18:06:17.823Z,99.90
2018-10-16T18:08:46.361Z,99.90
2018-10-16T18:11:14.944Z,99.90
2018-10-16T18:13:43.574Z,99.90
2018-10-16T18:16:12.168Z,99.90
2018-10-16T18:18:40.706Z,99.90
2018-10-16T18:21:09.432Z,99.90
2018-10-16T18:23:38.039Z,99.90
2018-10-16T18:26:06.644Z,99.90
2018-10-16T18:28:35.253Z,99.90
2018-10-16T18:31:03.852Z,99.90
2018-10-16T18:33:33.256Z,99.90
2018-10-16T18:36:02.030Z,99.90
2018-10-16T18:38:30.648Z,99.90
2018-10-16T18:40:59.212Z,99.90
2018-10-16T18:43:27.786Z,99.90
2018-10-16T18:45:56.389Z,99.90
2018-10-16T18:48:24.995Z,99.90
2018-10-16T18:50:53.937Z,99.90
2018-10-16T18:53:22.412Z,99.90
2018-10-16T18:55:51.004Z,99.90
2018-10-16T18:58:19.584Z,99.90
2018-10-16T19:00:48.162Z,99.90
2018-10-16T19:03:16.783Z,99.90
2018-10-16T19:05:45.364Z,99.90
2018-10-16T19:08:13.906Z,99.90
2018-10-16T19:10:42.566Z,99.90
2018-10-16T19:13:11.153Z,99.90
2018-10-16T19:15:39.703Z,99.90
2018-10-16T19:18:08.253Z,99.90
2018-10-16T19:20:37.008Z,99.90
2018-10-16T19:23:05.852Z,99.90
2018-10-16T19:25:34.397Z,99.90
2018-10-16T19:28:02.944Z,99.90
2018-10-16T19:30:31.493Z,99.90
2018-10-16T19:33:00.211Z,99.90
2018-10-16T19:35:28.731Z,99.90
2018-10-16T19:37:57.424Z,99.90
2018-10-16T19:40:25.903Z,99.90
2018-10-16T19:42:54.482Z,99.90
2018-10-16T19:45:23.075Z,99.90
2018-10-16T19:47:51.697Z,99.90
2018-10-16T19:50:20.230Z,99.90
2018-10-16T19:52:48.951Z,99.90
2018-10-16T19:55:17.571Z,99.90
2018-10-16T19:57:46.419Z,99.90
2018-10-16T20:00:14.993Z,99.90
2018-10-16T20:02:43.602Z,99.90
2018-10-16T20:05:12.182Z,99.90
2018-10-16T20:07:40.734Z,99.90
2018-10-16T20:10:11.033Z,99.90
2018-10-16T20:12:39.655Z,99.90
2018-10-16T20:15:09.450Z,99.90
2018-10-16T20:17:38.018Z,99.90
2018-10-16T20:20:07.478Z,99.90
2018-10-16T20:22:36.025Z,99.90
2018-10-16T20:25:04.692Z,99.90
2018-10-16T20:27:33.297Z,99.90
2018-10-16T20:30:01.769Z,99.90
2018-10-16T20:32:30.295Z,99.90
2018-10-16T20:34:58.862Z,99.90
2018-10-16T20:37:27.387Z,99.90
2018-10-16T20:39:55.914Z,99.90
2018-10-16T20:42:24.450Z,99.90
2018-10-16T20:44:52.940Z,99.90
2018-10-16T20:47:21.429Z,99.90
2018-10-16T20:49:50.000Z,99.90
2018-10-16T20:52:18.527Z,99.90
2018-10-16T20:54:47.021Z,99.90
2018-10-16T20:57:15.533Z,99.90
2018-10-16T20:59:44.756Z,99.90
2018-10-16T21:02:13.315Z,99.90
2018-10-16T21:04:41.906Z,99.90
2018-10-16T21:07:10.396Z,99.90
2018-10-16T21:09:38.938Z,99.90
2018-10-16T21:12:07.836Z,99.90
2018-10-16T21:14:36.486Z,99.90
2018-10-16T21:17:05.044Z,99.90
2018-10-16T21:19:33.602Z,99.90
2018-10-16T21:22:02.238Z,99.90
2018-10-16T21:24:30.867Z,99.90
2018-10-16T21:27:07.469Z,99.90
2018-10-16T21:29:36.234Z,99.90
2018-10-16T21:32:05.601Z,99.90
2018-10-16T21:34:34.291Z,99.90
2018-10-16T21:37:04.275Z,99.90
2018-10-16T21:39:32.743Z,99.90
2018-10-16T21:42:01.271Z,99.90
2018-10-16T21:44:29.872Z,99.90
2018-10-16T21:46:58.416Z,99.90
2018-10-16T21:49:26.991Z,99.90
2018-10-16T21:51:55.473Z,99.90
2018-10-16T21:54:24.077Z,99.90
2018-10-16T21:56:52.535Z,99.90
2018-10-16T21:59:21.164Z,99.90
2018-10-16T22:01:54.987Z,99.90
2018-10-16T22:04:23.539Z,99.90
2018-10-16T22:06:52.034Z,99.90
2018-10-16T22:09:20.568Z,99.90
2018-10-16T22:11:49.356Z,99.90
2018-10-16T22:14:17.939Z,99.90
2018-10-16T22:16:46.498Z,99.90
2018-10-16T22:19:15.108Z,99.90
2018-10-16T22:21:43.627Z,99.90
2018-10-16T22:24:12.199Z,99.90
2018-10-16T22:26:40.793Z,99.90
2018-10-16T22:29:09.318Z,99.90
2018-10-16T22:31:37.895Z,99.90
2018-10-16T22:34:06.807Z,99.90
2018-10-16T22:36:35.443Z,99.90
2018-10-16T22:39:05.367Z,99.90
2018-10-16T22:41:33.842Z,99.90
2018-10-16T22:44:02.391Z,99.90
2018-10-16T22:46:30.900Z,99.90
2018-10-16T22:48:59.457Z,99.90
2018-10-16T22:51:28.040Z,99.90
2018-10-16T22:53:56.532Z,99.90
2018-10-16T22:56:25.080Z,99.90
2018-10-16T22:58:53.647Z,99.90
2018-10-16T23:01:22.206Z,99.90
2018-10-16T23:03:50.837Z,99.90
2018-10-16T23:06:19.350Z,99.90
2018-10-16T23:08:47.950Z,99.90
2018-10-16T23:11:16.623Z,99.90
2018-10-16T23:13:45.070Z,99.90
2018-10-16T23:16:13.573Z,99.90
2018-10-16T23:18:42.180Z,99.90
2018-10-16T23:21:10.717Z,99.90
2018-10-16T23:23:39.437Z,99.90
2018-10-16T23:26:08.554Z,99.90
2018-10-16T23:28:37.485Z,99.90
2018-10-16T23:31:06.085Z,99.90
2018-10-16T23:33:34.624Z,99.90
2018-10-16T23:36:03.231Z,99.90
2018-10-16T23:38:31.760Z,99.90
2018-10-16T23:41:00.395Z,99.90
2018-10-16T23:43:29.041Z,99.90
2018-10-16T23:45:57.519Z,99.90
2018-10-16T23:48:26.039Z,99.90
2018-10-16T23:50:54.528Z,99.90
2018-10-16T23:53:23.067Z,99.90
2018-10-16T23:55:51.577Z,99.90
2018-10-16T23:58:20.114Z,99.90
